createdAt,value
2022-11-01T00:03:26.686Z,28.48
2022-11-01T00:08:29.213Z,28.70
2022-11-01T00:13:31.808Z,27.58
2022-11-01T00:18:34.032Z,26.52
2022-11-01T00:23:37.530Z,27.90
2022-11-01T00:28:39.972Z,29.50
2022-11-01T00:33:42.559Z,27.88
2022-11-01T00:38:44.743Z,27.30
2022-11-01T00:43:47.056Z,29.15
2022-11-01T00:48:50.037Z,29.58
2022-11-01T00:53:52.452Z,28.92
2022-11-01T00:58:54.661Z,27.35
2022-11-01T01:03:56.890Z,27.23
2022-11-01T01:09:00.917Z,27.27
2022-11-01T01:14:03.326Z,26.00
2022-11-01T01:19:05.700Z,27.55
2022-11-01T01:24:08.062Z,26.92
2022-11-01T01:29:10.378Z,26.10
2022-11-01T01:34:12.571Z,26.17
2022-11-01T01:39:14.998Z,27.30
2022-11-01T01:44:50.419Z,25.17
2022-11-01T01:50:12.697Z,25.17
2022-11-01T01:55:19.265Z,26.40
2022-11-01T02:00:21.795Z,25.30
2022-11-01T02:05:50.279Z,25.52
2022-11-01T02:10:52.929Z,26.15
2022-11-01T02:16:19.802Z,27.50
2022-11-01T02:21:24.741Z,27.48
2022-11-01T02:26:49.359Z,26.02
2022-11-01T02:32:21.140Z,25.35
2022-11-01T02:37:54.249Z,25.40
2022-11-01T02:43:05.693Z,25.40
2022-11-01T02:48:08.217Z,23.95
2022-11-01T02:53:11.237Z,23.13
2022-11-01T02:58:29.212Z,24.42
2022-11-01T03:03:36.425Z,21.65
2022-11-01T03:08:45.765Z,21.08
2022-11-01T03:13:54.126Z,20.98
2022-11-01T03:19:05.356Z,22.05
2022-11-01T03:24:30.367Z,21.77
2022-11-01T03:29:35.799Z,22.77
2022-11-01T03:34:39.739Z,23.83
2022-11-01T03:39:44.234Z,22.58
2022-11-01T03:44:51.194Z,22.38
2022-11-01T03:50:16.751Z,22.48
2022-11-01T03:55:20.499Z,22.95
2022-11-01T04:00:26.949Z,22.92
2022-11-01T04:05:31.655Z,24.90
2022-11-01T04:10:34.430Z,24.48
2022-11-01T04:15:55.499Z,25.02
2022-11-01T04:20:58.304Z,23.10
2022-11-01T04:26:00.600Z,23.65
2022-11-01T04:31:03.072Z,24.80
2022-11-01T04:36:09.079Z,23.50
2022-11-01T04:41:12.126Z,22.08
2022-11-01T04:46:14.816Z,21.85
2022-11-01T04:51:17.420Z,20.48
2022-11-01T04:56:19.568Z,21.90
2022-11-01T05:01:22.149Z,23.20
2022-11-01T05:06:24.586Z,20.13
2022-11-01T05:11:27.043Z,21.50
2022-11-01T05:16:29.289Z,19.88
2022-11-01T05:21:31.534Z,21.15
2022-11-01T05:26:34.166Z,20.10
2022-11-01T05:31:37.343Z,20.23
2022-11-01T05:36:40.196Z,20.70
2022-11-01T05:41:42.388Z,18.95
2022-11-01T05:46:44.911Z,19.90
2022-11-01T05:51:47.444Z,19.42
2022-11-01T05:56:49.985Z,18.13
2022-11-01T06:01:52.530Z,17.10
2022-11-01T06:06:54.813Z,17.80
2022-11-01T06:11:57.177Z,18.45
2022-11-01T06:16:59.532Z,19.98
2022-11-01T06:22:01.921Z,20.92
2022-11-01T06:27:07.433Z,21.08
2022-11-01T06:32:12.358Z,22.40
2022-11-01T06:37:14.631Z,21.42
2022-11-01T06:42:17.075Z,20.45
2022-11-01T06:47:19.441Z,22.67
2022-11-01T06:52:21.750Z,22.73
2022-11-01T06:57:24.332Z,26.05
2022-11-01T07:02:29.595Z,25.92
2022-11-01T07:07:32.333Z,26.67
2022-11-01T07:12:34.653Z,28.70
2022-11-01T07:17:37.020Z,35.47
2022-11-01T07:22:39.378Z,32.05
2022-11-01T07:27:41.806Z,32.38
2022-11-01T07:32:44.099Z,29.25
2022-11-01T07:37:46.318Z,35.25
2022-11-01T07:42:48.562Z,33.40
2022-11-01T07:47:51.100Z,31.92
2022-11-01T07:53:07.788Z,27.70
2022-11-01T07:58:11.189Z,24.88
2022-11-01T08:03:18.645Z,23.55
2022-11-01T08:08:21.065Z,25.05
2022-11-01T08:13:25.429Z,22.48
2022-11-01T08:18:27.666Z,21.75
2022-11-01T08:23:30.205Z,21.80
2022-11-01T08:28:33.516Z,19.83
2022-11-01T08:33:36.092Z,21.35
2022-11-01T08:38:38.442Z,21.58
2022-11-01T08:43:40.940Z,18.30
2022-11-01T08:48:43.360Z,19.85
2022-11-01T08:53:45.528Z,13.10
2022-11-01T08:58:49.880Z,12.30
2022-11-01T09:03:53.670Z,12.18
2022-11-01T09:08:56.535Z,11.80
2022-11-01T09:13:59.262Z,11.02
2022-11-01T09:19:02.261Z,7.90
2022-11-01T09:24:04.658Z,7.68
2022-11-01T09:29:06.948Z,7.03
2022-11-01T09:34:09.091Z,6.70
2022-11-01T09:39:11.503Z,6.85
2022-11-01T09:44:26.620Z,7.18
2022-11-01T09:49:33.700Z,7.32
2022-11-01T09:54:36.029Z,7.53
2022-11-01T09:59:41.335Z,6.90
2022-11-01T10:05:08.558Z,6.72
2022-11-01T10:10:32.487Z,5.72
2022-11-01T10:16:00.399Z,5.97
2022-11-01T10:21:09.135Z,5.55
2022-11-01T10:26:16.925Z,6.53
2022-11-01T10:31:24.216Z,5.15
2022-11-01T10:41:50.927Z,6.07
2022-11-01T10:46:53.979Z,4.82
2022-11-01T10:52:03.190Z,5.05
2022-11-01T10:57:10.968Z,5.18
2022-11-01T11:02:38.968Z,5.05
2022-11-01T11:07:41.990Z,4.75
2022-11-01T11:12:46.714Z,4.88
2022-11-01T11:17:55.147Z,5.03
2022-11-01T11:23:02.375Z,5.05
2022-11-01T11:28:06.092Z,5.20
2022-11-01T11:33:18.337Z,7.13
2022-11-01T11:38:42.026Z,5.63
2022-11-01T11:43:44.282Z,6.15
2022-11-01T11:48:52.905Z,6.20
2022-11-01T11:54:21.574Z,5.80
2022-11-01T11:59:30.049Z,5.43
2022-11-01T12:04:40.925Z,5.25
2022-11-01T12:09:48.725Z,4.80
2022-11-01T12:14:52.642Z,5.72
2022-11-01T12:20:14.448Z,4.53
2022-11-01T12:25:25.453Z,4.28
2022-11-01T12:30:31.432Z,4.50
2022-11-01T12:35:44.791Z,4.80
2022-11-01T12:40:51.000Z,6.43
2022-11-01T12:46:03.205Z,5.97
2022-11-01T12:51:12.779Z,7.30
2022-11-01T12:56:15.365Z,8.32
2022-11-01T13:01:24.879Z,7.45
2022-11-01T13:06:45.567Z,5.82
2022-11-01T13:12:25.837Z,5.93
2022-11-01T13:17:56.993Z,4.43
2022-11-01T13:23:12.044Z,4.82
2022-11-01T13:28:26.502Z,5.13
2022-11-01T13:33:40.690Z,4.60
2022-11-01T13:38:53.553Z,4.45
2022-11-01T13:44:03.361Z,4.15
2022-11-01T13:49:11.078Z,4.35
2022-11-01T13:54:32.932Z,4.27
2022-11-01T13:59:37.957Z,3.90
2022-11-01T14:04:40.802Z,4.53
2022-11-01T14:09:52.303Z,4.18
2022-11-01T14:14:54.565Z,5.53
2022-11-01T14:19:56.806Z,5.88
2022-11-01T14:25:24.654Z,5.97
2022-11-01T14:30:32.694Z,5.93
2022-11-01T14:35:38.128Z,6.20
2022-11-01T14:40:53.858Z,6.22
2022-11-01T14:46:14.676Z,6.53
2022-11-01T14:51:38.269Z,6.93
2022-11-01T14:56:41.282Z,6.55
2022-11-01T15:01:49.473Z,6.80
2022-11-01T15:06:52.525Z,6.57
2022-11-01T15:12:05.774Z,6.95
2022-11-01T15:17:23.278Z,7.10
2022-11-01T15:22:32.461Z,7.05
2022-11-01T15:27:45.191Z,6.28
2022-11-01T15:32:53.762Z,7.18
2022-11-01T15:37:57.738Z,7.53
2022-11-01T15:43:02.116Z,8.00
2022-11-01T15:48:12.845Z,8.80
2022-11-01T15:53:20.942Z,10.10
2022-11-01T15:58:32.609Z,9.07
2022-11-01T16:03:45.505Z,9.00
2022-11-01T16:08:53.861Z,8.40
2022-11-01T16:14:07.716Z,9.10
2022-11-01T16:19:28.305Z,10.55
2022-11-01T16:24:32.653Z,10.38
2022-11-01T16:29:51.771Z,10.00
2022-11-01T16:34:55.844Z,9.85
2022-11-01T16:40:00.955Z,10.90
2022-11-01T16:45:03.486Z,10.25
2022-11-01T16:50:06.098Z,10.60
2022-11-01T16:55:08.804Z,11.95
2022-11-01T17:00:14.272Z,11.45
2022-11-01T17:05:24.111Z,11.48
2022-11-01T17:10:26.673Z,11.00
2022-11-01T17:15:29.745Z,11.50
2022-11-01T17:20:32.714Z,12.98
2022-11-01T17:25:34.889Z,13.30
2022-11-01T17:30:37.555Z,14.98
2022-11-01T17:35:40.820Z,14.13
2022-11-01T17:40:46.138Z,14.77
2022-11-01T17:45:49.902Z,14.18
2022-11-01T17:50:52.264Z,15.77
2022-11-01T17:55:58.302Z,16.40
2022-11-01T18:01:00.550Z,16.13
2022-11-01T18:06:03.082Z,16.25
2022-11-01T18:11:32.811Z,16.55
2022-11-01T18:16:55.135Z,19.73
2022-11-01T18:22:06.151Z,23.10
2022-11-01T18:27:13.980Z,20.95
2022-11-01T18:32:22.723Z,22.05
2022-11-01T18:38:03.552Z,24.45
2022-11-01T18:43:09.038Z,27.95
2022-11-01T18:48:24.955Z,31.33
2022-11-01T18:53:29.983Z,32.35
2022-11-01T18:58:40.507Z,28.88
2022-11-01T19:03:43.013Z,28.00
2022-11-01T19:08:53.040Z,33.17
2022-11-01T19:13:59.752Z,29.70
2022-11-01T19:19:01.956Z,33.55
2022-11-01T19:24:17.019Z,32.95
2022-11-01T19:29:26.561Z,34.67
2022-11-01T19:39:38.627Z,31.15
2022-11-01T19:44:40.913Z,32.85
2022-11-01T19:49:43.520Z,31.52
2022-11-01T19:54:49.970Z,30.98
2022-11-01T19:59:53.612Z,31.10
2022-11-01T20:04:59.971Z,31.25
2022-11-01T20:10:02.824Z,30.17
2022-11-01T20:15:05.272Z,30.42
2022-11-01T20:20:08.062Z,32.13
2022-11-01T20:25:10.325Z,32.42
2022-11-01T20:30:12.810Z,32.45
2022-11-01T20:35:15.122Z,31.10
2022-11-01T20:40:17.651Z,32.15
2022-11-01T20:45:19.942Z,31.17
2022-11-01T20:50:22.208Z,36.55
2022-11-01T20:55:24.719Z,42.22
2022-11-01T21:00:27.632Z,41.92
2022-11-01T21:05:31.826Z,43.47
2022-11-01T21:10:40.504Z,39.85
2022-11-01T21:15:46.649Z,42.20
2022-11-01T21:20:50.366Z,41.45
2022-11-01T21:25:58.296Z,41.67
2022-11-01T21:31:20.776Z,42.67
2022-11-01T21:36:23.106Z,38.47
2022-11-01T21:41:45.586Z,39.85
2022-11-01T21:46:55.652Z,39.72
2022-11-01T21:52:01.064Z,37.47
2022-11-01T21:57:05.911Z,32.03
2022-11-01T22:02:11.813Z,33.20
2022-11-01T22:07:14.285Z,34.10
2022-11-01T22:12:17.082Z,36.60
2022-11-01T22:17:19.536Z,38.33
2022-11-01T22:22:21.754Z,34.05
2022-11-01T22:27:23.997Z,35.47
2022-11-01T22:32:26.168Z,35.90
2022-11-01T22:37:30.888Z,36.17
2022-11-01T22:42:33.098Z,35.67
2022-11-01T22:47:35.719Z,33.65
2022-11-01T22:52:41.785Z,34.05
2022-11-01T22:57:58.688Z,35.38
2022-11-01T23:03:20.336Z,34.85
2022-11-01T23:08:30.032Z,36.13
2022-11-01T23:13:51.803Z,34.70
2022-11-01T23:19:01.816Z,37.30
2022-11-01T23:24:04.509Z,36.83
2022-11-01T23:29:06.812Z,37.22
2022-11-01T23:34:11.135Z,36.17
2022-11-01T23:39:15.184Z,36.80
2022-11-01T23:44:31.317Z,37.97
2022-11-01T23:49:35.252Z,37.88
2022-11-01T23:54:43.392Z,38.30
2022-11-01T23:59:46.222Z,37.28
